Accueil
METAR-TAF:

METAR-TAF

Aéroports :

Meiringen, Suisse

latitude: 46-44-25N, longitude: 8-06-36E, altitude: 577 m

Observation

Le bulletin a été fait il y a 10 minutes, à 02:50 UTC
Vent 11 kt de nord-est, variant entre nord et est/nord-est
Température 2°C
Humidité 75%
Pression 1010 hPa
Visibilité: 9000 m
Nuages fragmentés à une hauteur de 2800 ft
Ciel couvert à une hauteur de 3700 ft

METAR: LSMM 190250Z AUTO 04011KT 010V070 9000NDV BKN028 OVC037 02/M02 Q1010 RMK

Heure: 04:00 (03:00 UTC)


TAF: absent

Observations et prévisions météorologiques de plus de 4000 aéroports (messages METAR et TAF).

Les stations disponibles sont représentées par des disques jaunes et rouges sur la carte.

Passer la souris dessus pour voir le nom de la station.

Cliquer dessus pour voir les observations et prévisions météorologiques.

Pour changer de carte: cliquez sur les boutons verts avec une croix noire pour zoomer, sur le bouton vert avec un tiret pour effectuer un zoom arrière, ou sur les flèches vertes pour les cartes adjacentes.


METAR-TAF: